Magdalena, NM (87825)

4:30 PM MDT on October 31, 2014 (GMT -0600)
VLA | Change Station
CLOSE
Current Station
Personal Weather Station
Location: Socorro, NM
Elevation: 6982 ft
Nearby Weather Stations

Elev 6982 ft 34.08 °N, 107.62 °W | Updated 1 minute ago

Clear
Clear
61.9 °F
Feels Like 61.9 °F
N
16.8
Wind Variable Wind from SSE
Gusts 20.8 mph

Today
High -- | Low -- °F
--% Chance of Precip.
Yesterday
High -- | Low -- °F
Precip. -- in
7:27 AM 6:17 PM
First Quarter, 59% visible
Pressure 30.21 in
Visibility 10.0 miles
Clouds Clear
Dew Point 38 °F
Humidity 41%
Rainfall -999.00 in
Snow Depth Not available.
UV 2 out of 12
Pollen 2.40 out of 12
Air Quality Not available.
Flu Activity Not available.
METAR KONM 312215Z AUTO 16010G18KT 10SM CLR 22/02 A3021 RMK AO2 T02150016

More Conditions Fewer Conditions

Pressure 30.21 in
Visibility 10.0 miles
Clouds Clear
Dew Point 38 °F
Humidity 41%
Rainfall -999.00 in
Snow Depth Not available.
UV 2 out of 12
Pollen 2.40 out of 12
Air Quality Not available.
Flu Activity Not available.
METAR KONM 312215Z AUTO 16010G18KT 10SM CLR 22/02 A3021 RMK AO2 T02150016

More Conditions Fewer Conditions

Nowcast | as of 3:53 PM MDT on October 31, 2014

Showers...some with thunder...will continue through early evening. Storms crossing into western McKinley County will move across state roads 602 and 36...and along State Road 53 and Interstate 40 toward Gallup...re d rock...Vanderwagen...Zuni Pueblo...Ramah...El Morro National Monument...Upper Nutria...Fort Wingate...Pinedale...and Standing Rock. Showers crossing into western Catron and western Cibola counties will move toward Ojo Caliente...Fence Lake...Salt Lake...Red Hill...Quemado...Luna...and across State Road 36... Highway 180...and along Highway 60 and State Road 12. Expect rainfall up to a tenth of an inch and gusts to 40 mph along with lightning as these storms move through. Elsewhere...expect some thunder and rainfall up to a tenth of an inch in scattered showers through early evening.

×

10-Day Weather Forecast

Almanac

Astronomy

Oct. 31, 2014 Rise Set
Actual Time
Civil Twilight
Nautical Twilight
Astronomical Twilight
Moon
Length of Visible Light
Length of Day
Tomorrow will be .
, % of the Moon is Illuminated

Today's Extremes

State Highs State Lows

Community

WunderPhotos

Upload Photos

1,766,770 photos uploaded!

WunderBlogs® & News

Nearby

Air Quality

  Air Quality AQ Index Pollutant
Not available.

Snow Depth

Station Depth Elevation

Earthquake Activity

City Distance Mag. Time & Date
Minimum magnitude displayed is 2.5.

Coastal Water Temperatures

Place Temperature

Nearby Weather Stations